Time;durP1;ratioP1;P1;durP2;ratioP2;P2;SDS_P1;SDS_P2;PMS_P1;PMS_P2;Temp;Humidity;BMP_temperature;BMP_pressure;BME280_temperature;BME280_humidity;BME280_pressure;Samples;Min_cycle;Max_cycle;Signal;HPM_P1;HPM_P2
2023/08/20 00:01:30;;;;;;;17.15;10.82;;;;;;;21.06;100.00;96940.47;5032729;28;20021;-67
2023/08/20 00:03:56;;;;;;;10.70;6.60;;;;;;;21.22;100.00;96939.75;5032501;28;20065;-66
2023/08/20 00:06:23;;;;;;;15.90;7.40;;;;;;;21.02;100.00;96944.56;5032648;28;20474;-67
2023/08/20 00:08:48;;;;;;;14.57;7.40;;;;;;;20.99;100.00;96943.41;5032411;28;20116;-67
2023/08/20 00:11:14;;;;;;;8.73;6.10;;;;;;;20.97;100.00;96941.06;5032271;28;20455;-66
2023/08/20 00:13:40;;;;;;;10.38;6.70;;;;;;;21.00;100.00;96945.00;5032063;28;20112;-66
2023/08/20 00:16:06;;;;;;;8.43;5.78;;;;;;;21.04;100.00;96948.47;5032202;28;20036;-66
2023/08/20 00:18:32;;;;;;;11.40;6.78;;;;;;;21.02;100.00;96939.00;5032356;28;20087;-67
2023/08/20 00:20:58;;;;;;;10.63;6.85;;;;;;;20.94;100.00;96950.28;5032201;28;20026;-67
2023/08/20 00:23:24;;;;;;;14.63;6.43;;;;;;;20.95;100.00;96956.63;5031983;28;20041;-66
2023/08/20 00:25:49;;;;;;;14.80;6.90;;;;;;;20.97;100.00;96951.41;5032167;28;20026;-67
2023/08/20 00:28:15;;;;;;;13.95;6.97;;;;;;;20.97;100.00;96945.84;5032226;28;20084;-67
2023/08/20 00:30:40;;;;;;;14.63;7.28;;;;;;;20.87;100.00;96950.44;5032157;28;20100;-67
2023/08/20 00:33:05;;;;;;;11.98;7.40;;;;;;;20.51;100.00;96950.31;5031867;28;20091;-66
2023/08/20 00:35:32;;;;;;;11.52;6.97;;;;;;;20.26;100.00;96943.22;5032210;28;20441;-66
2023/08/20 00:37:57;;;;;;;11.15;6.63;;;;;;;20.15;100.00;96943.41;5032186;28;20479;-67
2023/08/20 00:40:22;;;;;;;11.80;6.78;;;;;;;20.19;100.00;96949.69;5031712;28;20091;-68
2023/08/20 00:42:48;;;;;;;10.35;7.15;;;;;;;20.25;100.00;96952.78;5031934;28;20036;-67
2023/08/20 00:45:16;;;;;;;13.90;8.00;;;;;;;20.25;100.00;96947.22;5032071;28;20037;-67
2023/08/20 00:47:42;;;;;;;8.93;7.55;;;;;;;20.20;100.00;96950.47;5031687;28;20037;-67
2023/08/20 00:50:07;;;;;;;16.88;8.80;;;;;;;20.05;100.00;96958.28;5032010;28;20033;-67
2023/08/20 00:52:34;;;;;;;13.13;8.25;;;;;;;20.05;100.00;96956.28;5031829;28;20030;-67
2023/08/20 00:54:59;;;;;;;16.23;8.30;;;;;;;20.11;100.00;96959.34;5031895;28;20029;-67
2023/08/20 00:57:26;;;;;;;20.67;8.90;;;;;;;20.16;100.00;96958.88;5032113;28;20041;-67
2023/08/20 00:59:54;;;;;;;12.40;7.90;;;;;;;20.20;100.00;96967.16;5031768;28;20037;-67
2023/08/20 01:02:20;;;;;;;10.10;7.35;;;;;;;20.21;100.00;96955.63;5031749;28;20033;-67
2023/08/20 01:04:48;;;;;;;12.73;6.38;;;;;;;20.27;100.00;96960.69;5032902;28;20487;-66
2023/08/20 01:07:13;;;;;;;13.05;7.03;;;;;;;20.26;100.00;96957.13;5036020;28;20060;-67
2023/08/20 01:09:57;;;;;;;10.90;6.97;;;;;;;20.23;100.00;96957.97;5034650;28;20044;-68
2023/08/20 01:12:24;;;;;;;12.27;7.55;;;;;;;20.13;100.00;96964.50;5034242;28;20271;-68
2023/08/20 01:14:49;;;;;;;15.40;8.00;;;;;;;20.01;100.00;96965.91;5033334;28;20564;-67
2023/08/20 01:17:15;;;;;;;11.80;8.15;;;;;;;19.91;100.00;96962.06;5032611;28;20033;-68
2023/08/20 01:19:40;;;;;;;10.93;7.25;;;;;;;19.80;100.00;96967.81;5032360;28;20044;-68
2023/08/20 01:22:29;;;;;;;11.38;7.30;;;;;;;19.62;100.00;96970.84;5031481;28;20041;-68
2023/08/20 01:25:32;;;;;;;12.32;7.65;;;;;;;19.65;100.00;96961.66;5031709;28;20067;-68
2023/08/20 01:28:22;;;;;;;17.13;7.78;;;;;;;19.73;100.00;96965.16;5031469;28;20424;-68
2023/08/20 01:30:48;;;;;;;11.02;7.28;;;;;;;19.84;100.00;96971.34;5031679;28;20497;-67
2023/08/20 01:33:14;;;;;;;12.32;7.40;;;;;;;19.87;100.00;96969.69;5031370;28;20048;-68
2023/08/20 01:35:40;;;;;;;14.18;7.25;;;;;;;19.81;100.00;96977.72;5031517;28;20033;-67
2023/08/20 01:38:06;;;;;;;14.70;8.00;;;;;;;19.79;100.00;96976.56;5031665;28;20084;-68
2023/08/20 01:40:31;;;;;;;15.73;7.97;;;;;;;19.67;100.00;96978.69;5031216;28;20083;-67
2023/08/20 01:42:57;;;;;;;12.80;8.43;;;;;;;19.17;100.00;96973.09;5031320;28;20029;-67
2023/08/20 01:45:23;;;;;;;15.15;8.68;;;;;;;18.90;100.00;96971.03;5030246;28;20033;-68
2023/08/20 01:47:48;;;;;;;16.48;9.52;;;;;;;18.83;100.00;96974.66;5030334;28;20108;-67
2023/08/20 01:50:14;;;;;;;14.60;9.98;;;;;;;18.76;100.00;96973.94;5031510;28;20078;-68
2023/08/20 01:52:39;;;;;;;12.65;9.45;;;;;;;18.75;100.00;96975.16;5030030;28;20120;-67
2023/08/20 01:55:05;;;;;;;20.75;10.18;;;;;;;18.81;100.00;96977.09;5031638;28;20398;-67
2023/08/20 01:57:31;;;;;;;14.05;9.30;;;;;;;18.91;100.00;96972.63;5031515;28;20033;-67
2023/08/20 01:59:57;;;;;;;15.30;8.65;;;;;;;19.10;100.00;96977.53;5032284;28;20510;-67
2023/08/20 02:02:23;;;;;;;17.17;8.57;;;;;;;19.27;100.00;96972.94;5034637;28;20475;-68
2023/08/20 02:04:48;;;;;;;16.90;9.63;;;;;;;19.39;100.00;96971.59;5034935;28;20033;-67
2023/08/20 02:07:14;;;;;;;14.98;9.60;;;;;;;19.35;100.00;96973.63;5034359;28;20033;-67
2023/08/20 02:09:39;;;;;;;17.60;10.40;;;;;;;19.23;100.00;96969.44;5035049;28;20025;-67
2023/08/20 02:12:05;;;;;;;22.05;10.23;;;;;;;19.09;100.00;96970.41;5034401;28;20029;-68
2023/08/20 02:14:34;;;;;;;12.18;8.20;;;;;;;19.08;100.00;96968.81;5034705;28;20030;-67
2023/08/20 02:17:00;;;;;;;16.67;8.48;;;;;;;19.18;100.00;96980.22;5034917;28;20034;-67
2023/08/20 02:19:25;;;;;;;16.83;8.98;;;;;;;19.24;100.00;96986.88;5035131;28;20040;-67
2023/08/20 02:21:50;;;;;;;13.02;8.70;;;;;;;19.17;100.00;96987.75;5033561;28;20487;-68
2023/08/20 02:24:16;;;;;;;17.10;7.80;;;;;;;19.29;100.00;96987.19;5034226;28;20116;-67
2023/08/20 02:26:41;;;;;;;12.05;7.43;;;;;;;19.31;100.00;96984.00;5033419;28;20045;-67
2023/08/20 02:29:06;;;;;;;13.00;7.95;;;;;;;19.23;100.00;96977.75;5034377;28;20105;-68
2023/08/20 02:31:32;;;;;;;14.30;8.20;;;;;;;19.17;100.00;96975.84;5034244;28;20109;-68
2023/08/20 02:33:57;;;;;;;14.98;9.23;;;;;;;18.81;100.00;96982.63;5034123;28;20482;-68
2023/08/20 02:36:23;;;;;;;16.13;9.27;;;;;;;18.62;100.00;96983.22;5034182;28;20108;-67
2023/08/20 02:38:48;;;;;;;13.35;8.35;;;;;;;18.72;100.00;96988.66;5034205;28;20548;-68
2023/08/20 02:41:13;;;;;;;13.70;8.35;;;;;;;18.95;100.00;96983.69;5034241;28;20029;-68
2023/08/20 02:43:39;;;;;;;12.38;9.88;;;;;;;18.89;100.00;96992.47;5034325;28;20049;-68
2023/08/20 02:46:04;;;;;;;15.88;9.52;;;;;;;18.74;100.00;96988.22;5034142;28;20443;-67
2023/08/20 02:48:30;;;;;;;13.23;9.02;;;;;;;18.82;100.00;96983.44;5034111;28;20052;-68
2023/08/20 02:50:56;;;;;;;15.30;9.50;;;;;;;18.95;100.00;96975.34;5033953;28;20030;-68
2023/08/20 02:53:22;;;;;;;15.95;8.95;;;;;;;18.96;100.00;96974.13;5033681;28;20086;-67
2023/08/20 02:55:47;;;;;;;17.15;9.38;;;;;;;18.87;100.00;96978.22;5033951;28;20155;-67
2023/08/20 02:58:13;;;;;;;12.93;9.15;;;;;;;18.73;100.00;96983.91;5033975;28;20026;-68
2023/08/20 03:00:38;;;;;;;14.13;8.80;;;;;;;18.69;100.00;96983.94;5033875;28;20026;-68
2023/08/20 03:03:08;;;;;;;18.02;9.32;;;;;;;18.71;100.00;96987.09;5034123;28;20076;-67
2023/08/20 03:05:36;;;;;;;14.90;9.10;;;;;;;18.72;100.00;96988.66;5034134;28;20421;-67
2023/08/20 03:08:03;;;;;;;14.52;9.10;;;;;;;18.74;100.00;96977.13;5033922;28;20029;-68
2023/08/20 03:10:29;;;;;;;15.45;9.70;;;;;;;18.70;100.00;96979.16;5033270;28;20030;-68
2023/08/20 03:12:55;;;;;;;17.20;9.48;;;;;;;18.64;100.00;96980.84;5033390;28;20029;-68
2023/08/20 03:15:20;;;;;;;13.38;8.48;;;;;;;18.58;100.00;96979.69;5033477;28;20383;-68
2023/08/20 03:17:45;;;;;;;12.43;8.65;;;;;;;18.61;100.00;96982.44;5033575;28;20111;-68
2023/08/20 03:20:11;;;;;;;12.63;8.40;;;;;;;18.69;100.00;96992.25;5033770;28;20029;-69
2023/08/20 03:22:38;;;;;;;10.98;8.68;;;;;;;18.77;100.00;96997.72;5033032;28;20028;-68
2023/08/20 03:25:04;;;;;;;14.68;9.10;;;;;;;18.80;100.00;96999.66;5033628;28;20033;-67
2023/08/20 03:27:30;;;;;;;13.43;9.02;;;;;;;18.76;100.00;97005.25;5033465;28;20482;-68
2023/08/20 03:29:55;;;;;;;13.77;9.90;;;;;;;18.71;100.00;97000.19;5033384;28;20037;-67
2023/08/20 03:32:22;;;;;;;19.48;9.35;;;;;;;18.58;100.00;97004.66;5032898;28;20029;-68
2023/08/20 03:34:47;;;;;;;13.52;9.00;;;;;;;18.43;100.00;96996.50;5033187;28;20501;-68
2023/08/20 03:37:12;;;;;;;14.82;9.30;;;;;;;18.33;100.00;97003.72;5033209;28;20049;-68
2023/08/20 03:39:38;;;;;;;18.55;9.60;;;;;;;18.23;100.00;97006.59;5033172;28;20030;-68
2023/08/20 03:42:04;;;;;;;13.23;8.95;;;;;;;18.25;100.00;97010.53;5032933;28;20047;-68
2023/08/20 03:44:30;;;;;;;13.35;8.98;;;;;;;18.30;100.00;96998.22;5032941;28;20033;-68
2023/08/20 03:46:56;;;;;;;12.30;9.40;;;;;;;18.45;100.00;97004.41;5032950;28;20572;-67
2023/08/20 03:49:22;;;;;;;12.88;9.13;;;;;;;18.64;100.00;97012.13;5032898;28;20116;-68
2023/08/20 03:51:47;;;;;;;13.43;8.23;;;;;;;18.73;100.00;97023.53;5032756;28;20026;-68
2023/08/20 03:54:13;;;;;;;19.83;8.95;;;;;;;18.80;100.00;97019.09;5032572;28;20048;-68
2023/08/20 03:56:38;;;;;;;14.50;8.18;;;;;;;18.84;100.00;97022.66;5032995;28;20030;-68
2023/08/20 03:59:03;;;;;;;13.32;8.48;;;;;;;18.93;100.00;97025.72;5032665;28;20461;-68
2023/08/20 04:01:29;;;;;;;16.40;8.43;;;;;;;18.97;100.00;97022.91;5032748;28;20034;-68
2023/08/20 04:03:54;;;;;;;14.25;8.00;;;;;;;18.87;100.00;97021.81;5032726;28;20033;-68
2023/08/20 04:06:20;;;;;;;15.55;8.38;;;;;;;18.81;100.00;97026.22;5034805;28;20410;-68
2023/08/20 04:08:45;;;;;;;18.67;9.65;;;;;;;18.57;100.00;97026.06;5032665;28;20037;-68
2023/08/20 04:11:11;;;;;;;16.60;10.55;;;;;;;18.15;100.00;97023.28;5032627;28;20100;-68
2023/08/20 04:13:37;;;;;;;19.45;10.50;;;;;;;17.99;100.00;97031.34;5033314;28;20104;-67
2023/08/20 04:16:02;;;;;;;15.45;9.98;;;;;;;17.88;100.00;97028.66;5035480;28;20461;-67
2023/08/20 04:18:28;;;;;;;13.65;9.50;;;;;;;17.87;100.00;97035.38;5034483;28;20036;-69
2023/08/20 04:20:53;;;;;;;16.30;9.40;;;;;;;17.97;100.00;97036.50;5033714;28;20072;-68
2023/08/20 04:23:19;;;;;;;14.27;9.77;;;;;;;18.06;100.00;97045.16;5032361;28;20061;-68
2023/08/20 04:25:45;;;;;;;14.25;9.45;;;;;;;17.98;100.00;97046.38;5033349;28;20029;-68
2023/08/20 04:28:12;;;;;;;15.35;9.43;;;;;;;18.19;100.00;97039.91;5031658;28;20029;-68
2023/08/20 04:30:38;;;;;;;16.15;9.23;;;;;;;18.41;100.00;97051.56;5032355;28;20028;-68
2023/08/20 04:33:03;;;;;;;11.43;9.05;;;;;;;18.50;100.00;97048.34;5032120;28;20394;-68
2023/08/20 04:35:29;;;;;;;12.65;8.75;;;;;;;18.49;100.00;97050.31;5032296;28;20132;-67
2023/08/20 04:37:54;;;;;;;13.38;9.15;;;;;;;18.36;100.00;97052.00;5032158;28;20025;-68
2023/08/20 04:40:19;;;;;;;12.85;8.57;;;;;;;18.40;100.00;97047.25;5030570;28;20521;-68
2023/08/20 04:42:46;;;;;;;18.73;10.15;;;;;;;17.87;100.00;97040.91;5031032;28;20501;-68
2023/08/20 04:45:12;;;;;;;16.98;10.98;;;;;;;17.42;100.00;97054.63;5032033;28;20029;-67
2023/08/20 04:47:38;;;;;;;17.67;12.40;;;;;;;17.16;100.00;97048.41;5032218;28;20087;-67
2023/08/20 04:50:06;;;;;;;15.10;11.27;;;;;;;17.07;100.00;97050.81;5031883;28;20083;-68
2023/08/20 04:52:33;;;;;;;18.23;11.55;;;;;;;17.22;100.00;97051.56;5030717;28;20359;-68
2023/08/20 04:54:58;;;;;;;17.23;11.35;;;;;;;17.50;100.00;97050.63;5030733;28;20478;-67
2023/08/20 04:57:23;;;;;;;21.15;11.13;;;;;;;17.55;100.00;97063.25;5032231;28;20040;-68
2023/08/20 04:59:49;;;;;;;13.43;10.02;;;;;;;17.71;100.00;97046.16;5032134;28;20392;-68
2023/08/20 05:02:14;;;;;;;15.65;11.13;;;;;;;17.71;100.00;97057.22;5031821;28;20425;-68
2023/08/20 05:04:40;;;;;;;17.40;11.50;;;;;;;17.62;100.00;97054.91;5031836;28;20038;-67
2023/08/20 05:07:06;;;;;;;23.33;12.25;;;;;;;17.66;100.00;97054.88;5032063;28;20528;-68
2023/08/20 05:09:32;;;;;;;15.30;11.82;;;;;;;17.68;100.00;97055.25;5031920;28;20029;-67
2023/08/20 05:11:57;;;;;;;19.38;11.45;;;;;;;17.66;100.00;97060.41;5032421;28;20115;-68
2023/08/20 05:14:22;;;;;;;19.05;11.57;;;;;;;17.62;100.00;97051.34;5031992;28;20061;-68
2023/08/20 05:16:48;;;;;;;16.80;11.35;;;;;;;17.99;100.00;97047.97;5031921;28;20044;-68
2023/08/20 05:19:13;;;;;;;16.17;10.23;;;;;;;18.38;100.00;97051.59;5031904;28;20121;-68
2023/08/20 05:21:38;;;;;;;15.02;10.77;;;;;;;18.66;100.00;97048.56;5031860;28;20034;-67
2023/08/20 05:24:05;;;;;;;17.98;10.15;;;;;;;18.86;100.00;97045.22;5030486;28;20025;-67
2023/08/20 05:26:30;;;;;;;16.33;9.52;;;;;;;19.58;100.00;97059.00;5032639;28;20108;-67
2023/08/20 05:28:55;;;;;;;11.27;8.50;;;;;;;20.89;100.00;97059.34;5032043;28;20516;-68
2023/08/20 05:31:21;;;;;;;14.77;7.40;;;;;;;22.47;100.00;97066.31;5032198;28;20387;-68
2023/08/20 05:33:46;;;;;;;11.80;7.10;;;;;;;23.95;100.00;97072.22;5032075;28;20030;-69
2023/08/20 05:36:12;;;;;;;10.93;6.60;;;;;;;25.08;89.21;97084.91;5035594;28;20597;-68
2023/08/20 05:38:37;;;;;;;9.68;6.63;;;;;;;25.99;80.72;97085.25;5035172;28;20605;-68
2023/08/20 05:41:02;;;;;;;12.65;6.38;;;;;;;26.66;74.79;97092.19;5035248;28;20037;-68
2023/08/20 05:43:28;;;;;;;16.42;6.10;;;;;;;27.30;70.57;97096.31;5035127;28;20108;-68
2023/08/20 05:45:53;;;;;;;11.93;6.30;;;;;;;27.42;66.48;97096.19;5035313;28;20052;-68
2023/08/20 05:48:18;;;;;;;12.63;7.20;;;;;;;27.46;66.30;97096.03;5035575;28;20065;-68
2023/08/20 05:50:44;;;;;;;11.63;7.30;;;;;;;26.75;68.31;97092.22;5035217;28;20378;-68
2023/08/20 05:53:10;;;;;;;15.55;7.43;;;;;;;24.98;82.43;97086.09;5034812;28;20370;-68
2023/08/20 05:55:35;;;;;;;14.10;7.57;;;;;;;24.15;89.12;97088.78;5035049;28;20033;-68
2023/08/20 05:58:00;;;;;;;12.00;6.47;;;;;;;25.36;87.53;97090.78;5034938;28;20549;-68
2023/08/20 06:00:26;;;;;;;9.27;6.15;;;;;;;27.39;71.77;97104.78;5034762;28;20375;-68
2023/08/20 06:02:51;;;;;;;11.50;6.55;;;;;;;28.62;62.21;97109.13;5034457;28;20040;-68
2023/08/20 06:05:17;;;;;;;9.02;6.22;;;;;;;29.67;58.02;97113.03;5034969;28;20402;-68
2023/08/20 06:07:42;;;;;;;14.52;6.72;;;;;;;30.48;53.98;97114.66;5034865;28;20063;-68
2023/08/20 06:10:08;;;;;;;12.00;6.47;;;;;;;30.83;52.29;97116.72;5034969;28;20053;-68
2023/08/20 06:12:34;;;;;;;13.75;6.80;;;;;;;26.95;69.21;97108.63;5034501;28;20053;-68
2023/08/20 06:14:59;;;;;;;11.75;6.32;;;;;;;28.51;63.68;97103.22;5037181;28;20390;-68
2023/08/20 06:17:24;;;;;;;15.90;7.10;;;;;;;25.18;81.77;97100.56;5039091;28;20029;-69
2023/08/20 06:19:50;;;;;;;13.77;7.55;;;;;;;25.48;84.69;97095.53;5034822;28;20401;-67
2023/08/20 06:22:15;;;;;;;16.75;8.00;;;;;;;26.07;84.21;97090.13;5034165;28;20043;-68
2023/08/20 06:24:41;;;;;;;9.48;6.65;;;;;;;27.72;70.90;97099.25;5034788;28;20395;-70
2023/08/20 06:27:06;;;;;;;10.27;6.80;;;;;;;28.87;67.34;97109.91;5034872;28;20122;-69
2023/08/20 06:29:31;;;;;;;10.00;5.85;;;;;;;30.40;59.79;97103.00;5034550;28;20029;-69
2023/08/20 06:31:57;;;;;;;12.38;7.05;;;;;;;30.17;58.52;97103.91;5034420;28;20470;-68
2023/08/20 06:34:22;;;;;;;11.43;6.90;;;;;;;29.62;61.33;97094.75;5034021;28;20071;-68
2023/08/20 06:36:49;;;;;;;12.68;7.20;;;;;;;29.23;63.85;97091.19;5033495;28;20104;-68
2023/08/20 06:39:15;;;;;;;10.77;5.75;;;;;;;30.13;62.11;97089.19;5034032;28;20060;-68
2023/08/20 06:41:41;;;;;;;9.80;6.03;;;;;;;31.90;55.14;97100.97;5034141;28;20037;-69
2023/08/20 06:44:06;;;;;;;11.32;5.20;;;;;;;32.97;51.49;97109.47;5034204;28;20087;-69
2023/08/20 06:46:32;;;;;;;11.48;6.43;;;;;;;33.00;49.06;97111.28;5033532;28;20033;-68
2023/08/20 06:48:58;;;;;;;10.65;5.50;;;;;;;30.95;57.97;97106.34;5034553;28;20043;-69
2023/08/20 06:51:25;;;;;;;11.55;5.95;;;;;;;32.90;51.11;97107.09;5034249;28;20478;-69
2023/08/20 06:53:50;;;;;;;9.05;5.80;;;;;;;33.16;48.75;97109.84;5034134;28;20036;-68
2023/08/20 06:56:15;;;;;;;13.65;5.95;;;;;;;33.48;47.85;97121.03;5034623;28;20421;-68
2023/08/20 06:58:42;;;;;;;8.00;5.60;;;;;;;34.11;45.34;97125.56;5034137;28;20036;-68
2023/08/20 07:01:08;;;;;;;7.90;5.65;;;;;;;34.11;45.06;97119.09;5033877;28;20026;-68
2023/08/20 07:03:39;;;;;;;10.93;5.80;;;;;;;31.78;50.69;97117.09;5033716;28;20029;-69
2023/08/20 07:06:05;;;;;;;10.50;7.47;;;;;;;29.36;60.69;97106.56;5034834;28;20037;-69
2023/08/20 07:08:31;;;;;;;12.27;6.97;;;;;;;31.36;53.75;97115.56;5035742;28;20036;-69
2023/08/20 07:10:56;;;;;;;14.20;6.70;;;;;;;32.03;50.94;97117.56;5035107;28;20034;-69
2023/08/20 07:13:22;;;;;;;10.20;6.63;;;;;;;31.78;52.36;97119.13;5034614;28;20378;-69
2023/08/20 07:15:48;;;;;;;15.77;7.28;;;;;;;31.71;53.36;97114.69;5034402;28;20079;-68
2023/08/20 07:18:14;;;;;;;13.10;5.93;;;;;;;33.48;47.85;97121.81;5035876;28;20519;-69
2023/08/20 07:20:41;;;;;;;10.93;5.65;;;;;;;33.43;46.79;97124.63;5035888;28;20060;-71
2023/08/20 07:23:07;;;;;;;8.85;6.60;;;;;;;33.86;46.24;97128.09;5035746;28;20041;-68
2023/08/20 07:25:32;;;;;;;10.10;6.68;;;;;;;33.40;46.27;97120.75;5034661;28;20030;-68
2023/08/20 07:27:59;;;;;;;14.70;7.30;;;;;;;34.45;44.93;97126.34;5034149;28;20071;-68
2023/08/20 07:30:28;;;;;;;10.75;5.60;;;;;;;35.20;43.41;97130.59;5034151;28;20089;-67
2023/08/20 07:32:53;;;;;;;13.02;5.10;;;;;;;35.49;42.20;97136.94;5033808;28;20057;-68
2023/08/20 07:35:18;;;;;;;9.13;5.82;;;;;;;35.06;42.64;97143.81;5033198;28;20127;-67
2023/08/20 07:37:45;;;;;;;9.38;6.00;;;;;;;34.60;44.39;97131.75;5033233;28;20033;-67
2023/08/20 07:40:11;;;;;;;11.75;6.25;;;;;;;34.89;43.93;97140.25;5032903;28;20033;-66
2023/08/20 07:42:36;;;;;;;12.13;5.65;;;;;;;35.26;43.09;97144.78;5032890;28;20030;-67
2023/08/20 07:45:02;;;;;;;8.75;6.00;;;;;;;35.23;42.56;97144.56;5033269;28;20025;-67
2023/08/20 07:47:29;;;;;;;8.77;6.00;;;;;;;34.51;43.71;97143.41;5035899;28;20029;-68
2023/08/20 07:49:55;;;;;;;10.10;6.45;;;;;;;34.82;43.48;97145.16;5033039;28;20022;-67
2023/08/20 07:52:20;;;;;;;14.45;6.70;;;;;;;34.37;43.64;97144.44;5031755;28;20032;-67
2023/08/20 07:54:46;;;;;;;15.00;6.32;;;;;;;34.31;43.62;97144.44;5033137;28;20113;-68
2023/08/20 07:57:11;;;;;;;13.05;6.13;;;;;;;34.22;43.96;97142.63;5032677;28;20041;-68
2023/08/20 07:59:38;;;;;;;11.85;6.30;;;;;;;34.67;42.97;97136.91;5032782;28;20033;-67
2023/08/20 08:02:03;;;;;;;9.00;5.90;;;;;;;35.07;41.84;97141.75;5033030;28;20033;-67
2023/08/20 08:04:29;;;;;;;9.63;5.90;;;;;;;35.37;41.33;97148.38;5031820;28;20030;-68
2023/08/20 08:06:54;;;;;;;8.30;5.97;;;;;;;34.46;42.77;97144.16;5033549;28;20029;-68
2023/08/20 08:09:26;;;;;;;9.48;5.53;;;;;;;35.04;41.30;97149.25;5033184;28;20037;-68
2023/08/20 08:11:51;;;;;;;9.50;5.50;;;;;;;35.82;40.17;97147.41;5033327;28;20029;-68
2023/08/20 08:14:17;;;;;;;11.63;6.18;;;;;;;35.96;38.93;97157.66;5032951;28;20105;-68
2023/08/20 08:16:44;;;;;;;8.48;6.70;;;;;;;33.61;43.07;97160.31;5033146;28;20029;-68
2023/08/20 08:19:09;;;;;;;12.73;6.53;;;;;;;34.09;42.53;97162.25;5031568;28;20026;-68
2023/08/20 08:21:34;;;;;;;9.68;6.25;;;;;;;34.30;42.08;97153.47;5032711;28;20052;-68
2023/08/20 08:24:00;;;;;;;12.48;6.40;;;;;;;34.45;42.56;97154.78;5032872;28;20033;-68
2023/08/20 08:26:25;;;;;;;10.10;6.80;;;;;;;34.63;41.59;97162.00;5031396;28;20030;-67
2023/08/20 08:28:51;;;;;;;11.82;7.10;;;;;;;35.06;41.58;97168.66;5031832;28;20030;-66
2023/08/20 08:31:16;;;;;;;10.20;6.35;;;;;;;35.06;41.43;97169.44;5032735;28;20035;-68
2023/08/20 08:33:41;;;;;;;10.98;6.75;;;;;;;35.09;41.15;97168.38;5032613;28;20129;-70
2023/08/20 08:36:07;;;;;;;9.02;6.60;;;;;;;34.67;42.14;97167.41;5032546;28;20026;-68
2023/08/20 08:38:32;;;;;;;9.48;7.13;;;;;;;33.30;44.25;97165.63;5033330;28;20117;-68
2023/08/20 08:40:59;;;;;;;10.35;6.45;;;;;;;34.47;42.60;97166.41;5032898;28;20033;-69
2023/08/20 08:43:26;;;;;;;11.38;5.65;;;;;;;34.95;41.60;97169.44;5032470;28;20040;-69
2023/08/20 08:45:55;;;;;;;8.43;6.47;;;;;;;34.12;42.39;97171.78;5032740;28;20429;-68
2023/08/20 08:48:21;;;;;;;9.07;6.05;;;;;;;33.66;43.51;97168.88;5032715;28;20536;-68
2023/08/20 08:50:47;;;;;;;11.77;6.30;;;;;;;33.60;43.51;97170.91;5031957;28;20033;-69
2023/08/20 08:53:13;;;;;;;9.45;6.88;;;;;;;33.81;43.61;97171.50;5031225;28;20076;-69
2023/08/20 08:55:39;;;;;;;11.38;6.00;;;;;;;35.10;40.97;97169.94;5032843;28;20072;-69
2023/08/20 08:58:04;;;;;;;14.05;5.82;;;;;;;36.81;38.07;97179.06;5014689;28;20073;-68
2023/08/20 09:00:32;;;;;;;10.45;5.88;;;;;;;37.51;36.69;97182.19;5014666;28;20538;-68
2023/08/20 09:02:58;;;;;;;8.80;5.85;;;;;;;37.71;35.59;97182.97;5030447;28;20433;-67
2023/08/20 09:05:23;;;;;;;11.25;6.15;;;;;;;36.96;37.19;97181.50;5031946;28;20544;-67
2023/08/20 09:07:55;;;;;;;11.30;6.55;;;;;;;35.71;40.45;97165.34;5032101;28;20034;-68
2023/08/20 09:10:21;;;;;;;11.52;6.38;;;;;;;35.06;41.39;97166.59;5035302;28;20029;-68
2023/08/20 09:12:48;;;;;;;15.30;6.70;;;;;;;35.10;41.56;97163.47;5035460;28;20113;-67
2023/08/20 09:15:13;;;;;;;8.77;6.63;;;;;;;34.74;42.42;97154.78;5036743;28;20037;-67
2023/08/20 09:17:42;;;;;;;9.18;6.05;;;;;;;34.86;42.38;97156.28;5038623;28;20483;-68
2023/08/20 09:20:08;;;;;;;15.00;6.78;;;;;;;34.86;42.14;97159.13;5042631;28;20040;-68
2023/08/20 09:22:38;;;;;;;11.40;6.82;;;;;;;34.98;41.59;97157.81;5036601;28;20394;-68
2023/08/20 09:25:04;;;;;;;10.68;7.43;;;;;;;34.52;42.63;97158.38;5035625;28;20029;-67
2023/08/20 09:27:29;;;;;;;13.40;6.93;;;;;;;34.01;43.87;97161.19;5036080;28;20116;-67
2023/08/20 09:29:57;;;;;;;10.57;6.55;;;;;;;34.05;43.92;97158.88;5036638;28;20025;-66
2023/08/20 09:32:25;;;;;;;10.57;7.35;;;;;;;34.23;43.55;97157.59;5035760;28;20028;-69
2023/08/20 09:34:52;;;;;;;14.35;6.93;;;;;;;34.14;43.45;97152.94;5036267;28;20033;-66
2023/08/20 09:37:20;;;;;;;10.80;6.93;;;;;;;33.89;44.26;97144.13;5036096;28;20430;-67
2023/08/20 09:39:47;;;;;;;12.02;7.15;;;;;;;34.31;43.89;97155.06;5035659;28;20511;-68
2023/08/20 09:42:13;;;;;;;13.48;6.57;;;;;;;33.86;44.24;97155.75;5035875;28;20115;-68
2023/08/20 09:44:40;;;;;;;10.43;7.32;;;;;;;34.24;43.64;97162.00;5036280;28;20025;-68
2023/08/20 09:47:10;;;;;;;11.30;6.75;;;;;;;34.42;43.63;97161.50;5037739;28;20025;-68
2023/08/20 09:49:41;;;;;;;11.77;6.93;;;;;;;34.18;44.05;97155.56;5036896;28;20048;-68
2023/08/20 09:52:09;;;;;;;8.90;6.80;;;;;;;32.74;47.57;97153.97;5036359;28;20414;-68
2023/08/20 09:55:07;;;;;;;10.13;6.93;;;;;;;34.13;44.01;97154.22;5018685;28;20033;-68
2023/08/20 09:57:36;;;;;;;11.98;7.88;;;;;;;34.29;44.19;97149.88;5035852;28;20037;-68
2023/08/20 10:00:09;;;;;;;10.13;7.28;;;;;;;35.23;42.19;97158.03;4998182;28;20070;-67
2023/08/20 10:02:35;;;;;;;10.55;6.95;;;;;;;34.81;42.83;97149.31;5015325;28;20026;-67
2023/08/20 10:05:03;;;;;;;12.43;7.50;;;;;;;34.82;43.17;97161.47;5015770;28;20034;-67
2023/08/20 10:07:32;;;;;;;11.35;6.68;;;;;;;34.74;43.40;97154.78;5014724;28;20125;-68
2023/08/20 10:10:00;;;;;;;13.07;8.10;;;;;;;33.73;45.43;97159.09;5015573;28;20103;-67
2023/08/20 10:12:27;;;;;;;15.57;7.65;;;;;;;33.75;45.75;97153.66;5015285;28;20369;-68
2023/08/20 10:14:53;;;;;;;13.00;7.05;;;;;;;33.98;45.27;97157.31;5015974;28;20030;-69
2023/08/20 10:17:18;;;;;;;10.30;7.00;;;;;;;34.51;44.16;97151.94;5014689;28;20038;-69
2023/08/20 10:19:46;;;;;;;11.50;7.47;;;;;;;34.23;44.37;97161.25;4998603;28;20068;-69
2023/08/20 10:22:11;;;;;;;14.90;8.00;;;;;;;34.00;44.71;97157.59;5015677;28;20479;-67
2023/08/20 10:24:47;;;;;;;13.85;7.65;;;;;;;33.75;45.06;97152.91;5016237;28;20160;-67
2023/08/20 10:27:12;;;;;;;10.00;6.93;;;;;;;34.39;42.87;97156.84;5021801;28;20037;-68
2023/08/20 10:29:41;;;;;;;11.13;7.20;;;;;;;33.74;44.87;97154.19;5019640;28;20042;-69
2023/08/20 10:32:13;;;;;;;12.93;7.88;;;;;;;33.63;44.89;97149.22;5022436;28;20026;-68
2023/08/20 10:34:43;;;;;;;14.20;8.13;;;;;;;33.56;45.03;97149.72;5019591;28;20175;-68
2023/08/20 10:37:10;;;;;;;13.63;7.45;;;;;;;33.10;46.39;97143.84;5016850;28;20084;-68
2023/08/20 10:39:35;;;;;;;11.32;7.10;;;;;;;33.38;45.85;97146.03;5017312;28;20038;-68
2023/08/20 10:42:19;;;;;;;9.95;7.40;;;;;;;33.65;45.17;97140.94;5016238;28;20034;-68
2023/08/20 10:45:11;;;;;;;8.68;6.03;;;;;;;33.28;45.68;97142.66;5016548;28;20495;-69
2023/08/20 10:47:48;;;;;;;11.85;5.82;;;;;;;33.96;44.21;97142.88;5017792;28;20049;-68
2023/08/20 10:50:18;;;;;;;10.43;7.07;;;;;;;33.41;45.25;97139.34;5019160;28;20065;-68
2023/08/20 10:52:57;;;;;;;15.35;7.38;;;;;;;33.55;45.19;97145.31;5015330;28;20076;-68
2023/08/20 10:55:23;;;;;;;15.80;7.72;;;;;;;33.42;45.88;97140.09;5016944;28;20487;-69
2023/08/20 10:57:56;;;;;;;13.15;7.28;;;;;;;33.21;45.89;97137.47;5018032;28;20030;-68
2023/08/20 11:00:22;;;;;;;13.80;7.43;;;;;;;33.49;45.56;97136.78;5013749;28;20026;-67
2023/08/20 11:02:49;;;;;;;14.32;8.13;;;;;;;33.56;45.09;97136.28;5017876;28;20036;-67
2023/08/20 11:05:21;;;;;;;10.77;7.18;;;;;;;33.39;45.21;97130.56;5019329;28;20105;-68
2023/08/20 11:07:48;;;;;;;12.82;7.90;;;;;;;33.29;45.94;97137.75;5018643;28;20033;-68
2023/08/20 11:10:17;;;;;;;14.98;8.40;;;;;;;32.53;47.59;97136.25;5015495;28;20030;-66
2023/08/20 11:12:45;;;;;;;;;;;;;;;32.63;47.77;97136.84;4998658;28;20506;-68
2023/08/20 11:15:11;;;;;;;15.75;8.85;;;;;;;31.57;50.30;97124.09;5014218;28;20366;-68
2023/08/20 11:17:47;;;;;;;12.98;8.52;;;;;;;32.29;49.01;97126.03;5013002;28;20037;-67
2023/08/20 11:20:14;;;;;;;9.80;7.40;;;;;;;32.45;48.57;97127.47;5014461;28;20040;-66